RYR8RB LIEE-LIRP
Flight info
| Callsign | RYR8RB |
|---|---|
| Flight time | 0h 50m |
| Altitude | 33000 |
| Route | KOVAS DCT DEXUL DCT LABOM DCT IBROS DCT NEMIT Q125 ELB |
| Aircraft | B738/M-SDE2E3FGHIRWXY/LB1 |
Departure
| Time | 2026-05-08 19:21 |
|---|---|
| Airport | Cagliari Elmas Airport (LIEE) |
Arrival
| Time | 2026-05-08 20:11 |
|---|---|
| Airport | Pisa International Airport (LIRP) |
| Time | Latitude | Longitude | Altitude | Speed | Heading |
|---|---|---|---|---|---|
| 2026-05-08 18:54 | 39.25256 | 9.05878 | 14 ft | 0 kts | 51° |
| 2026-05-08 18:55 | 39.25255 | 9.05878 | 14 ft | 0 kts | 51° |
| 2026-05-08 19:11 | 39.25255 | 9.05877 | 14 ft | 1 kts | 51° |
| 2026-05-08 19:12 | 39.25239 | 9.05854 | 15 ft | 4 kts | 40° |
| 2026-05-08 19:12 | 39.25217 | 9.05836 | 14 ft | 4 kts | 17° |
| 2026-05-08 19:12 | 39.25193 | 9.05834 | 15 ft | 4 kts | 326° |
| 2026-05-08 19:12 | 39.25186 | 9.05841 | 16 ft | 0 kts | 319° |
| 2026-05-08 19:15 | 39.25187 | 9.05840 | 16 ft | 1 kts | 319° |
| 2026-05-08 19:15 | 39.25206 | 9.05818 | 15 ft | 5 kts | 318° |
| 2026-05-08 19:15 | 39.25239 | 9.05781 | 14 ft | 7 kts | 317° |
| 2026-05-08 19:16 | 39.25276 | 9.05737 | 14 ft | 8 kts | 319° |
| 2026-05-08 19:16 | 39.25317 | 9.05691 | 14 ft | 8 kts | 317° |
| 2026-05-08 19:16 | 39.25355 | 9.05644 | 14 ft | 8 kts | 315° |
| 2026-05-08 19:16 | 39.25385 | 9.05585 | 14 ft | 9 kts | 290° |
| 2026-05-08 19:17 | 39.25401 | 9.05496 | 14 ft | 11 kts | 282° |
| 2026-05-08 19:17 | 39.25429 | 9.05397 | 15 ft | 13 kts | 299° |
| 2026-05-08 19:17 | 39.25499 | 9.05295 | 14 ft | 17 kts | 317° |
| 2026-05-08 19:17 | 39.25589 | 9.05191 | 14 ft | 17 kts | 318° |
| 2026-05-08 19:18 | 39.25676 | 9.05090 | 14 ft | 17 kts | 318° |
| 2026-05-08 19:18 | 39.25761 | 9.04991 | 14 ft | 16 kts | 318° |
| 2026-05-08 19:18 | 39.25843 | 9.04896 | 14 ft | 16 kts | 317° |
| 2026-05-08 19:18 | 39.25921 | 9.04805 | 14 ft | 15 kts | 318° |
| 2026-05-08 19:19 | 39.25997 | 9.04717 | 14 ft | 14 kts | 318° |
| 2026-05-08 19:19 | 39.26069 | 9.04634 | 14 ft | 14 kts | 318° |
| 2026-05-08 19:19 | 39.26118 | 9.04536 | 14 ft | 13 kts | 281° |
| 2026-05-08 19:19 | 39.26110 | 9.04424 | 16 ft | 13 kts | 238° |
| 2026-05-08 19:20 | 39.26039 | 9.04396 | 15 ft | 13 kts | 144° |
| 2026-05-08 19:20 | 39.26016 | 9.04422 | 13 ft | 15 kts | 139° |
| 2026-05-08 19:20 | 39.25464 | 9.05062 | 14 ft | 118 kts | 138° |
| 2026-05-08 19:20 | 39.24732 | 9.05899 | 179 ft | 151 kts | 140° |
| 2026-05-08 19:21 | 39.23945 | 9.06786 | 800 ft | 154 kts | 140° |
| 2026-05-08 19:21 | 39.23089 | 9.07708 | 1300 ft | 167 kts | 140° |
| 2026-05-08 19:21 | 39.22161 | 9.08720 | 1739 ft | 186 kts | 139° |
| 2026-05-08 19:21 | 39.21136 | 9.09896 | 2146 ft | 205 kts | 137° |
| 2026-05-08 19:22 | 39.20032 | 9.11181 | 2460 ft | 225 kts | 143° |
| 2026-05-08 19:22 | 39.18539 | 9.11860 | 2980 ft | 235 kts | 178° |
| 2026-05-08 19:22 | 39.16918 | 9.11596 | 3750 ft | 236 kts | 199° |
| 2026-05-08 19:22 | 39.15605 | 9.10392 | 4558 ft | 233 kts | 229° |
| 2026-05-08 19:23 | 39.14534 | 9.08839 | 5375 ft | 232 kts | 230° |
| 2026-05-08 19:23 | 39.13728 | 9.07056 | 6086 ft | 233 kts | 258° |
| 2026-05-08 19:23 | 39.13760 | 9.04985 | 6762 ft | 239 kts | 286° |
| 2026-05-08 19:23 | 39.14665 | 9.03077 | 7075 ft | 263 kts | 313° |
| 2026-05-08 19:24 | 39.16035 | 9.01472 | 7767 ft | 268 kts | 316° |
| 2026-05-08 19:24 | 39.17435 | 8.99886 | 8644 ft | 268 kts | 315° |
| 2026-05-08 19:24 | 39.18827 | 8.98299 | 9564 ft | 266 kts | 314° |
| 2026-05-08 19:24 | 39.20210 | 8.96707 | 10421 ft | 268 kts | 313° |
| 2026-05-08 19:25 | 39.21605 | 8.95091 | 11168 ft | 272 kts | 313° |
| 2026-05-08 19:25 | 39.23142 | 8.93617 | 11887 ft | 285 kts | 329° |
| 2026-05-08 19:25 | 39.25123 | 8.92889 | 12298 ft | 314 kts | 347° |
| 2026-05-08 19:25 | 39.27397 | 8.92678 | 12503 ft | 340 kts | 352° |
| 2026-05-08 19:26 | 39.29830 | 8.92551 | 12865 ft | 357 kts | 352° |
| 2026-05-08 19:26 | 39.32337 | 8.92430 | 13531 ft | 363 kts | 352° |
| 2026-05-08 19:26 | 39.34868 | 8.92285 | 14275 ft | 366 kts | 352° |
| 2026-05-08 19:26 | 39.37384 | 8.92115 | 15012 ft | 368 kts | 351° |
| 2026-05-08 19:27 | 39.39985 | 8.91927 | 15774 ft | 371 kts | 351° |
| 2026-05-08 19:27 | 39.42590 | 8.91922 | 16503 ft | 383 kts | 2° |
| 2026-05-08 19:27 | 39.45137 | 8.93029 | 17192 ft | 400 kts | 21° |
| 2026-05-08 19:27 | 39.47635 | 8.94780 | 17956 ft | 406 kts | 24° |
| 2026-05-08 19:28 | 39.50065 | 8.96576 | 18625 ft | 410 kts | 24° |
| 2026-05-08 19:28 | 39.52550 | 8.98416 | 19215 ft | 414 kts | 24° |
| 2026-05-08 19:28 | 39.55072 | 9.00260 | 19817 ft | 418 kts | 24° |
| 2026-05-08 19:28 | 39.57621 | 9.02101 | 20408 ft | 422 kts | 23° |
| 2026-05-08 19:29 | 39.60199 | 9.03947 | 20997 ft | 426 kts | 23° |
| 2026-05-08 19:29 | 39.62805 | 9.05810 | 21588 ft | 429 kts | 23° |
| 2026-05-08 19:29 | 39.65476 | 9.07544 | 22133 ft | 428 kts | 14° |
| 2026-05-08 19:29 | 39.68318 | 9.08600 | 22724 ft | 425 kts | 7° |
| 2026-05-08 19:30 | 39.71211 | 9.09468 | 23247 ft | 429 kts | 7° |
| 2026-05-08 19:30 | 39.74137 | 9.10339 | 23743 ft | 433 kts | 7° |
| 2026-05-08 19:30 | 39.77080 | 9.11259 | 24188 ft | 437 kts | 8° |
| 2026-05-08 19:30 | 39.80041 | 9.12228 | 24631 ft | 441 kts | 8° |
| 2026-05-08 19:31 | 39.83022 | 9.13225 | 25076 ft | 444 kts | 8° |
| 2026-05-08 19:31 | 39.86027 | 9.14249 | 25514 ft | 448 kts | 10° |
| 2026-05-08 19:31 | 39.89012 | 9.15546 | 25928 ft | 456 kts | 14° |
| 2026-05-08 19:31 | 39.91988 | 9.17024 | 26348 ft | 460 kts | 15° |
| 2026-05-08 19:32 | 39.94977 | 9.18570 | 26732 ft | 464 kts | 16° |
| 2026-05-08 19:32 | 39.97985 | 9.20131 | 27132 ft | 467 kts | 16° |
| 2026-05-08 19:32 | 40.01017 | 9.21691 | 27523 ft | 470 kts | 15° |
| 2026-05-08 19:32 | 40.04075 | 9.23244 | 27872 ft | 473 kts | 15° |
| 2026-05-08 19:33 | 40.07155 | 9.24793 | 28189 ft | 476 kts | 15° |
| 2026-05-08 19:33 | 40.10260 | 9.26348 | 28555 ft | 479 kts | 15° |
| 2026-05-08 19:33 | 40.13379 | 9.27909 | 29000 ft | 481 kts | 15° |
| 2026-05-08 19:33 | 40.16504 | 9.29475 | 29488 ft | 480 kts | 15° |
| 2026-05-08 19:34 | 40.19624 | 9.31042 | 30007 ft | 480 kts | 15° |
| 2026-05-08 19:34 | 40.22735 | 9.32605 | 30433 ft | 479 kts | 15° |
| 2026-05-08 19:34 | 40.25854 | 9.34173 | 30751 ft | 481 kts | 15° |
| 2026-05-08 19:34 | 40.28973 | 9.35743 | 31225 ft | 478 kts | 15° |
| 2026-05-08 19:35 | 40.32067 | 9.37305 | 31730 ft | 475 kts | 15° |
| 2026-05-08 19:35 | 40.35146 | 9.38859 | 32082 ft | 474 kts | 14° |
| 2026-05-08 19:35 | 40.38242 | 9.40418 | 32054 ft | 478 kts | 14° |
| 2026-05-08 19:36 | 40.44419 | 9.43305 | 32065 ft | 472 kts | 12° |
| 2026-05-08 19:36 | 40.50641 | 9.46017 | 32066 ft | 471 kts | 12° |
| 2026-05-08 19:37 | 40.56850 | 9.48742 | 32060 ft | 470 kts | 13° |
| 2026-05-08 19:37 | 40.63040 | 9.51503 | 32060 ft | 470 kts | 13° |
| 2026-05-08 19:38 | 40.69227 | 9.54285 | 32056 ft | 470 kts | 13° |
| 2026-05-08 19:38 | 40.75417 | 9.57074 | 32070 ft | 470 kts | 13° |
| 2026-05-08 19:39 | 40.81609 | 9.59869 | 32048 ft | 471 kts | 13° |
| 2026-05-08 19:39 | 40.87803 | 9.62671 | 32039 ft | 470 kts | 13° |
| 2026-05-08 19:40 | 40.93985 | 9.65473 | 32049 ft | 469 kts | 13° |
| 2026-05-08 19:40 | 41.00158 | 9.68274 | 32055 ft | 469 kts | 14° |
| 2026-05-08 19:41 | 41.06324 | 9.71078 | 32048 ft | 469 kts | 14° |
| 2026-05-08 19:41 | 41.12485 | 9.73886 | 32049 ft | 468 kts | 14° |
| 2026-05-08 19:42 | 41.18607 | 9.76682 | 32059 ft | 468 kts | 14° |
| 2026-05-08 19:42 | 41.24768 | 9.79501 | 32048 ft | 468 kts | 14° |
| 2026-05-08 19:43 | 41.29928 | 9.81867 | 32049 ft | 468 kts | 14° |
| 2026-05-08 19:43 | 41.37090 | 9.85156 | 32056 ft | 468 kts | 15° |
| 2026-05-08 19:44 | 41.42207 | 9.87512 | 32050 ft | 468 kts | 15° |
| 2026-05-08 19:44 | 41.48406 | 9.90371 | 32046 ft | 468 kts | 15° |
| 2026-05-08 19:45 | 41.54553 | 9.93211 | 32047 ft | 468 kts | 15° |
| 2026-05-08 19:45 | 41.60706 | 9.96060 | 32048 ft | 468 kts | 15° |
| 2026-05-08 19:46 | 41.66815 | 9.98895 | 32053 ft | 468 kts | 15° |
| 2026-05-08 19:46 | 41.76028 | 10.03180 | 32061 ft | 467 kts | 15° |
| 2026-05-08 19:47 | 41.82197 | 10.05914 | 32053 ft | 466 kts | 13° |
| 2026-05-08 19:47 | 41.88447 | 10.08189 | 32056 ft | 465 kts | 11° |
| 2026-05-08 19:48 | 41.91586 | 10.09291 | 31687 ft | 469 kts | 11° |
| 2026-05-08 19:48 | 41.94727 | 10.10407 | 31272 ft | 463 kts | 11° |
| 2026-05-08 19:48 | 41.97824 | 10.11526 | 30782 ft | 458 kts | 11° |
| 2026-05-08 19:48 | 42.00886 | 10.12645 | 30312 ft | 454 kts | 11° |
| 2026-05-08 19:49 | 42.03913 | 10.13759 | 29792 ft | 449 kts | 11° |
| 2026-05-08 19:49 | 42.06906 | 10.14865 | 29271 ft | 443 kts | 11° |
| 2026-05-08 19:49 | 42.09861 | 10.15957 | 28790 ft | 437 kts | 11° |
| 2026-05-08 19:49 | 42.12776 | 10.17036 | 28304 ft | 432 kts | 11° |
| 2026-05-08 19:50 | 42.15661 | 10.18104 | 27830 ft | 427 kts | 11° |
| 2026-05-08 19:50 | 42.18510 | 10.19158 | 27358 ft | 423 kts | 11° |
| 2026-05-08 19:50 | 42.21332 | 10.20203 | 26888 ft | 419 kts | 11° |
| 2026-05-08 19:50 | 42.24127 | 10.21239 | 26427 ft | 415 kts | 11° |
| 2026-05-08 19:51 | 42.26895 | 10.22266 | 25972 ft | 411 kts | 11° |
| 2026-05-08 19:51 | 42.29637 | 10.23284 | 25528 ft | 407 kts | 11° |
| 2026-05-08 19:51 | 42.32361 | 10.24296 | 25021 ft | 405 kts | 12° |
| 2026-05-08 19:51 | 42.35094 | 10.25311 | 24315 ft | 410 kts | 12° |
| 2026-05-08 19:52 | 42.37844 | 10.26335 | 23765 ft | 409 kts | 12° |
| 2026-05-08 19:52 | 42.40581 | 10.27359 | 23272 ft | 405 kts | 12° |
| 2026-05-08 19:52 | 42.43277 | 10.28371 | 22803 ft | 400 kts | 12° |
| 2026-05-08 19:52 | 42.45949 | 10.29374 | 22313 ft | 396 kts | 12° |
| 2026-05-08 19:53 | 42.48600 | 10.30369 | 21800 ft | 393 kts | 12° |
| 2026-05-08 19:53 | 42.51232 | 10.31357 | 21235 ft | 392 kts | 12° |
| 2026-05-08 19:53 | 42.53860 | 10.32343 | 20637 ft | 392 kts | 12° |
| 2026-05-08 19:53 | 42.56486 | 10.33330 | 20059 ft | 391 kts | 12° |
| 2026-05-08 19:54 | 42.59107 | 10.34317 | 19484 ft | 390 kts | 13° |
| 2026-05-08 19:54 | 42.61717 | 10.35300 | 18919 ft | 389 kts | 13° |
| 2026-05-08 19:54 | 42.64322 | 10.36282 | 18364 ft | 388 kts | 13° |
| 2026-05-08 19:54 | 42.66914 | 10.37261 | 17730 ft | 386 kts | 13° |
| 2026-05-08 19:55 | 42.69494 | 10.38234 | 17108 ft | 384 kts | 13° |
| 2026-05-08 19:55 | 42.72103 | 10.38879 | 16478 ft | 380 kts | 1° |
| 2026-05-08 19:55 | 42.74726 | 10.38779 | 15885 ft | 375 kts | 351° |
| 2026-05-08 19:55 | 42.77259 | 10.38029 | 15299 ft | 372 kts | 342° |
| 2026-05-08 19:56 | 42.79729 | 10.37013 | 14725 ft | 370 kts | 342° |
| 2026-05-08 19:56 | 42.82151 | 10.35986 | 14154 ft | 368 kts | 342° |
| 2026-05-08 19:56 | 42.84592 | 10.34949 | 13556 ft | 367 kts | 342° |
| 2026-05-08 19:56 | 42.87025 | 10.33925 | 12925 ft | 365 kts | 342° |
| 2026-05-08 19:57 | 42.89443 | 10.32914 | 12307 ft | 363 kts | 342° |
| 2026-05-08 19:57 | 42.91855 | 10.31912 | 11755 ft | 360 kts | 342° |
| 2026-05-08 19:57 | 42.94216 | 10.30935 | 11419 ft | 351 kts | 342° |
| 2026-05-08 19:57 | 42.96533 | 10.29977 | 11000 ft | 345 kts | 342° |
| 2026-05-08 19:58 | 42.98812 | 10.29035 | 10618 ft | 339 kts | 343° |
| 2026-05-08 19:58 | 43.01025 | 10.28121 | 10491 ft | 326 kts | 343° |
| 2026-05-08 19:58 | 43.03176 | 10.27231 | 10351 ft | 320 kts | 343° |
| 2026-05-08 19:58 | 43.05309 | 10.26349 | 10218 ft | 321 kts | 343° |
| 2026-05-08 19:59 | 43.07452 | 10.25462 | 10096 ft | 322 kts | 343° |
| 2026-05-08 19:59 | 43.09613 | 10.24566 | 9772 ft | 327 kts | 343° |
| 2026-05-08 19:59 | 43.11786 | 10.23666 | 9410 ft | 325 kts | 343° |
| 2026-05-08 19:59 | 43.13915 | 10.22782 | 9050 ft | 314 kts | 343° |
| 2026-05-08 20:00 | 43.15965 | 10.21931 | 8716 ft | 303 kts | 343° |
| 2026-05-08 20:00 | 43.17949 | 10.21106 | 8405 ft | 293 kts | 343° |
| 2026-05-08 20:00 | 43.19871 | 10.20307 | 8104 ft | 285 kts | 343° |
| 2026-05-08 20:00 | 43.21740 | 10.19530 | 7808 ft | 277 kts | 343° |
| 2026-05-08 20:01 | 43.23562 | 10.18772 | 7527 ft | 270 kts | 343° |
| 2026-05-08 20:01 | 43.25341 | 10.18031 | 7249 ft | 264 kts | 343° |
| 2026-05-08 20:01 | 43.27086 | 10.17304 | 6998 ft | 261 kts | 343° |
| 2026-05-08 20:01 | 43.28821 | 10.16580 | 6714 ft | 260 kts | 343° |
| 2026-05-08 20:02 | 43.30549 | 10.15859 | 6434 ft | 259 kts | 343° |
| 2026-05-08 20:02 | 43.32279 | 10.15136 | 6120 ft | 260 kts | 343° |
| 2026-05-08 20:02 | 43.33992 | 10.14420 | 5958 ft | 254 kts | 343° |
| 2026-05-08 20:02 | 43.35657 | 10.13724 | 5811 ft | 247 kts | 343° |
| 2026-05-08 20:03 | 43.37284 | 10.13044 | 5648 ft | 242 kts | 343° |
| 2026-05-08 20:03 | 43.38876 | 10.12377 | 5498 ft | 237 kts | 344° |
| 2026-05-08 20:03 | 43.40456 | 10.11832 | 5332 ft | 232 kts | 359° |
| 2026-05-08 20:03 | 43.41959 | 10.12391 | 5182 ft | 222 kts | 32° |
| 2026-05-08 20:04 | 43.43234 | 10.13522 | 5043 ft | 214 kts | 34° |
| 2026-05-08 20:04 | 43.44430 | 10.14652 | 4904 ft | 204 kts | 36° |
| 2026-05-08 20:04 | 43.45547 | 10.15771 | 4760 ft | 194 kts | 37° |
| 2026-05-08 20:04 | 43.46611 | 10.16862 | 4584 ft | 188 kts | 38° |
| 2026-05-08 20:05 | 43.47649 | 10.17935 | 4423 ft | 186 kts | 38° |
| 2026-05-08 20:05 | 43.48683 | 10.19007 | 4316 ft | 184 kts | 38° |
| 2026-05-08 20:05 | 43.49702 | 10.20066 | 4225 ft | 187 kts | 38° |
| 2026-05-08 20:05 | 43.50737 | 10.21140 | 4013 ft | 186 kts | 38° |
| 2026-05-08 20:06 | 43.51764 | 10.22206 | 3775 ft | 184 kts | 38° |
| 2026-05-08 20:06 | 43.52780 | 10.23260 | 3543 ft | 181 kts | 38° |
| 2026-05-08 20:06 | 43.53765 | 10.24282 | 3307 ft | 178 kts | 38° |
| 2026-05-08 20:06 | 43.54745 | 10.25299 | 3078 ft | 174 kts | 38° |
| 2026-05-08 20:07 | 43.55700 | 10.26289 | 2834 ft | 169 kts | 38° |
| 2026-05-08 20:07 | 43.56613 | 10.27236 | 2633 ft | 157 kts | 38° |
| 2026-05-08 20:07 | 43.57474 | 10.28129 | 2412 ft | 153 kts | 38° |
| 2026-05-08 20:07 | 43.58316 | 10.29002 | 2202 ft | 149 kts | 38° |
| 2026-05-08 20:08 | 43.59139 | 10.29856 | 2017 ft | 148 kts | 38° |
| 2026-05-08 20:08 | 43.59956 | 10.30685 | 1856 ft | 144 kts | 37° |
| 2026-05-08 20:08 | 43.60747 | 10.31530 | 1614 ft | 144 kts | 40° |
| 2026-05-08 20:08 | 43.61525 | 10.32387 | 1424 ft | 141 kts | 37° |
| 2026-05-08 20:09 | 43.62317 | 10.33190 | 1233 ft | 143 kts | 38° |
| 2026-05-08 20:09 | 43.63125 | 10.34020 | 1050 ft | 145 kts | 36° |
| 2026-05-08 20:09 | 43.63938 | 10.34849 | 870 ft | 147 kts | 38° |
| 2026-05-08 20:09 | 43.64751 | 10.35698 | 702 ft | 146 kts | 36° |
| 2026-05-08 20:10 | 43.65561 | 10.36527 | 498 ft | 145 kts | 37° |
| 2026-05-08 20:10 | 43.66373 | 10.37350 | 307 ft | 143 kts | 36° |
| 2026-05-08 20:10 | 43.67167 | 10.38180 | 111 ft | 143 kts | 35° |
| 2026-05-08 20:10 | 43.67951 | 10.38983 | 8 ft | 135 kts | 35° |
| 2026-05-08 20:11 | 43.68499 | 10.39549 | 8 ft | 60 kts | 37° |
| 2026-05-08 20:11 | 43.68816 | 10.39877 | 7 ft | 54 kts | 37° |
| 2026-05-08 20:11 | 43.69100 | 10.40170 | 8 ft | 45 kts | 37° |
| 2026-05-08 20:11 | 43.69225 | 10.40296 | 8 ft | 14 kts | 28° |
| 2026-05-08 20:12 | 43.69304 | 10.40251 | 9 ft | 13 kts | 307° |
| 2026-05-08 20:12 | 43.69331 | 10.40200 | 10 ft | 5 kts | 306° |
| 2026-05-08 20:12 | 43.69353 | 10.40158 | 10 ft | 5 kts | 306° |
| 2026-05-08 20:12 | 43.69377 | 10.40120 | 10 ft | 5 kts | 321° |
| 2026-05-08 20:13 | 43.69414 | 10.40101 | 10 ft | 6 kts | 348° |
| 2026-05-08 20:13 | 43.69463 | 10.40090 | 11 ft | 8 kts | 352° |
| 2026-05-08 20:13 | 43.69518 | 10.40079 | 10 ft | 8 kts | 352° |
| 2026-05-08 20:13 | 43.69571 | 10.40069 | 10 ft | 8 kts | 351° |
| 2026-05-08 20:14 | 43.69622 | 10.40058 | 12 ft | 7 kts | 351° |
| 2026-05-08 20:14 | 43.69668 | 10.40036 | 10 ft | 7 kts | 325° |
| 2026-05-08 20:14 | 43.69715 | 10.40025 | 10 ft | 7 kts | 7° |
| 2026-05-08 20:14 | 43.69742 | 10.40031 | 10 ft | 1 kts | 8° |
| 2026-05-08 20:15 | 43.69746 | 10.40032 | 10 ft | 0 kts | 8° |